sensor_id;sensor_type;location;lat;lon;timestamp;pressure;altitude;pressure_sealevel;temperature;humidity
61697;BME280;47610;52.252;20.922;2023-10-13T00:04:02;100285.27;;;10.79;100.00
61697;BME280;47610;52.252;20.922;2023-10-13T00:09:06;100290.34;;;10.75;100.00
61697;BME280;47610;52.252;20.922;2023-10-13T00:14:09;100286.98;;;10.70;100.00
61697;BME280;47610;52.252;20.922;2023-10-13T00:19:12;100290.40;;;10.68;100.00
61697;BME280;47610;52.252;20.922;2023-10-13T00:24:15;100286.66;;;10.68;100.00
61697;BME280;47610;52.252;20.922;2023-10-13T00:29:21;100284.91;;;10.64;100.00
61697;BME280;47610;52.252;20.922;2023-10-13T00:34:35;100288.60;;;10.63;100.00
61697;BME280;47610;52.252;20.922;2023-10-13T00:39:43;100290.98;;;10.59;100.00
61697;BME280;47610;52.252;20.922;2023-10-13T00:44:47;100296.87;;;10.57;100.00
61697;BME280;47610;52.252;20.922;2023-10-13T00:49:50;100299.24;;;10.49;100.00
61697;BME280;47610;52.252;20.922;2023-10-13T00:54:53;100307.62;;;10.46;100.00
61697;BME280;47610;52.252;20.922;2023-10-13T00:59:58;100315.48;;;10.41;100.00
61697;BME280;47610;52.252;20.922;2023-10-13T01:05:02;100309.65;;;10.34;100.00
61697;BME280;47610;52.252;20.922;2023-10-13T01:10:09;100313.00;;;10.34;100.00
61697;BME280;47610;52.252;20.922;2023-10-13T01:15:12;100308.23;;;10.40;100.00
61697;BME280;47610;52.252;20.922;2023-10-13T01:20:15;100315.20;;;10.40;100.00
61697;BME280;47610;52.252;20.922;2023-10-13T01:25:19;100317.35;;;10.35;100.00
61697;BME280;47610;52.252;20.922;2023-10-13T01:30:23;100319.06;;;10.31;100.00
61697;BME280;47610;52.252;20.922;2023-10-13T01:35:26;100322.13;;;10.27;100.00
61697;BME280;47610;52.252;20.922;2023-10-13T01:40:29;100325.58;;;10.25;100.00
61697;BME280;47610;52.252;20.922;2023-10-13T01:45:32;100328.83;;;10.23;100.00
61697;BME280;47610;52.252;20.922;2023-10-13T01:50:37;100333.78;;;10.20;100.00
61697;BME280;47610;52.252;20.922;2023-10-13T01:55:42;100329.66;;;10.21;100.00
61697;BME280;47610;52.252;20.922;2023-10-13T02:00:47;100319.03;;;10.20;100.00
61697;BME280;47610;52.252;20.922;2023-10-13T02:05:51;100304.77;;;10.20;100.00
61697;BME280;47610;52.252;20.922;2023-10-13T02:10:55;100312.42;;;10.17;100.00
61697;BME280;47610;52.252;20.922;2023-10-13T02:15:59;100315.14;;;10.12;100.00
61697;BME280;47610;52.252;20.922;2023-10-13T02:21:05;100320.62;;;10.08;100.00
61697;BME280;47610;52.252;20.922;2023-10-13T02:26:09;100318.14;;;10.04;100.00
61697;BME280;47610;52.252;20.922;2023-10-13T02:31:12;100321.83;;;10.00;100.00
61697;BME280;47610;52.252;20.922;2023-10-13T02:36:15;100321.75;;;9.94;100.00
61697;BME280;47610;52.252;20.922;2023-10-13T02:41:20;100321.75;;;9.92;100.00
61697;BME280;47610;52.252;20.922;2023-10-13T02:46:24;100322.02;;;9.89;100.00
61697;BME280;47610;52.252;20.922;2023-10-13T02:51:27;100322.13;;;9.85;100.00
61697;BME280;47610;52.252;20.922;2023-10-13T02:56:31;100325.20;;;9.82;100.00
61697;BME280;47610;52.252;20.922;2023-10-13T03:01:34;100321.18;;;9.82;100.00
61697;BME280;47610;52.252;20.922;2023-10-13T03:06:38;100317.50;;;9.79;100.00
61697;BME280;47610;52.252;20.922;2023-10-13T03:11:41;100323.98;;;9.75;100.00
61697;BME280;47610;52.252;20.922;2023-10-13T03:16:44;100315.02;;;9.75;100.00
61697;BME280;47610;52.252;20.922;2023-10-13T03:21:48;100310.51;;;9.76;100.00
61697;BME280;47610;52.252;20.922;2023-10-13T03:26:51;100303.54;;;9.75;100.00
61697;BME280;47610;52.252;20.922;2023-10-13T03:31:54;100299.46;;;9.78;100.00
61697;BME280;47610;52.252;20.922;2023-10-13T03:36:57;100303.50;;;9.84;100.00
61697;BME280;47610;52.252;20.922;2023-10-13T03:42:01;100316.04;;;9.87;100.00
61697;BME280;47610;52.252;20.922;2023-10-13T03:47:04;100324.34;;;9.88;100.00
61697;BME280;47610;52.252;20.922;2023-10-13T03:52:07;100321.70;;;9.86;100.00
61697;BME280;47610;52.252;20.922;2023-10-13T03:57:10;100314.83;;;9.83;100.00
61697;BME280;47610;52.252;20.922;2023-10-13T04:02:13;100317.28;;;9.81;100.00
61697;BME280;47610;52.252;20.922;2023-10-13T04:07:16;100326.84;;;9.77;100.00
61697;BME280;47610;52.252;20.922;2023-10-13T04:12:19;100331.85;;;9.80;100.00
61697;BME280;47610;52.252;20.922;2023-10-13T04:17:22;100333.23;;;9.85;100.00
61697;BME280;47610;52.252;20.922;2023-10-13T04:22:26;100324.55;;;9.91;100.00
61697;BME280;47610;52.252;20.922;2023-10-13T04:27:29;100321.70;;;9.93;100.00
61697;BME280;47610;52.252;20.922;2023-10-13T04:32:33;100321.65;;;9.95;100.00
61697;BME280;47610;52.252;20.922;2023-10-13T04:37:36;100315.32;;;9.98;100.00
61697;BME280;47610;52.252;20.922;2023-10-13T04:42:39;100320.77;;;10.01;100.00
61697;BME280;47610;52.252;20.922;2023-10-13T04:47:42;100323.86;;;10.03;100.00
61697;BME280;47610;52.252;20.922;2023-10-13T04:52:45;100319.06;;;9.97;100.00
61697;BME280;47610;52.252;20.922;2023-10-13T04:57:48;100314.87;;;9.84;100.00
61697;BME280;47610;52.252;20.922;2023-10-13T05:02:52;100316.77;;;9.74;100.00
61697;BME280;47610;52.252;20.922;2023-10-13T05:07:55;100321.22;;;9.72;100.00
61697;BME280;47610;52.252;20.922;2023-10-13T05:12:58;100316.17;;;9.72;100.00
61697;BME280;47610;52.252;20.922;2023-10-13T05:18:02;100320.51;;;9.72;100.00
61697;BME280;47610;52.252;20.922;2023-10-13T05:23:05;100333.87;;;9.72;100.00
61697;BME280;47610;52.252;20.922;2023-10-13T05:28:08;100354.16;;;9.76;100.00
61697;BME280;47610;52.252;20.922;2023-10-13T05:33:11;100356.86;;;9.76;100.00
61697;BME280;47610;52.252;20.922;2023-10-13T05:38:15;100351.23;;;9.72;100.00
61697;BME280;47610;52.252;20.922;2023-10-13T05:43:18;100354.08;;;9.78;100.00
61697;BME280;47610;52.252;20.922;2023-10-13T05:48:21;100357.30;;;9.79;100.00
61697;BME280;47610;52.252;20.922;2023-10-13T05:53:24;100360.88;;;9.83;100.00
61697;BME280;47610;52.252;20.922;2023-10-13T05:58:27;100361.34;;;9.87;100.00
61697;BME280;47610;52.252;20.922;2023-10-13T06:03:30;100384.40;;;9.93;100.00
61697;BME280;47610;52.252;20.922;2023-10-13T06:08:33;100383.11;;;10.08;100.00
61697;BME280;47610;52.252;20.922;2023-10-13T06:13:36;100385.89;;;10.25;100.00
61697;BME280;47610;52.252;20.922;2023-10-13T06:18:39;100397.64;;;10.34;100.00
61697;BME280;47610;52.252;20.922;2023-10-13T06:23:43;100406.19;;;10.45;100.00
61697;BME280;47610;52.252;20.922;2023-10-13T06:28:46;100415.88;;;10.61;100.00
61697;BME280;47610;52.252;20.922;2023-10-13T06:33:49;100418.08;;;10.83;100.00
61697;BME280;47610;52.252;20.922;2023-10-13T06:38:52;100400.71;;;11.03;100.00
61697;BME280;47610;52.252;20.922;2023-10-13T06:43:56;100405.95;;;11.27;100.00
61697;BME280;47610;52.252;20.922;2023-10-13T06:48:59;100395.17;;;11.48;100.00
61697;BME280;47610;52.252;20.922;2023-10-13T06:54:05;100394.41;;;11.74;100.00
61697;BME280;47610;52.252;20.922;2023-10-13T06:59:08;100396.20;;;11.97;100.00
61697;BME280;47610;52.252;20.922;2023-10-13T07:04:11;100400.46;;;12.21;100.00
61697;BME280;47610;52.252;20.922;2023-10-13T07:09:14;100394.41;;;12.50;100.00
61697;BME280;47610;52.252;20.922;2023-10-13T07:14:18;100398.13;;;12.75;100.00
61697;BME280;47610;52.252;20.922;2023-10-13T07:19:22;100400.07;;;12.61;100.00
61697;BME280;47610;52.252;20.922;2023-10-13T07:24:26;100404.78;;;12.44;100.00
61697;BME280;47610;52.252;20.922;2023-10-13T07:29:31;100408.02;;;12.31;100.00
61697;BME280;47610;52.252;20.922;2023-10-13T07:34:33;100400.05;;;12.34;100.00
61697;BME280;47610;52.252;20.922;2023-10-13T07:39:36;100403.77;;;12.38;100.00
61697;BME280;47610;52.252;20.922;2023-10-13T07:44:39;100399.44;;;12.35;100.00
61697;BME280;47610;52.252;20.922;2023-10-13T07:49:43;100399.63;;;12.38;100.00
61697;BME280;47610;52.252;20.922;2023-10-13T07:54:48;100392.56;;;12.38;100.00
61697;BME280;47610;52.252;20.922;2023-10-13T07:59:51;100393.70;;;12.33;100.00
61697;BME280;47610;52.252;20.922;2023-10-13T08:04:54;100385.83;;;12.15;100.00
61697;BME280;47610;52.252;20.922;2023-10-13T08:09:57;100381.69;;;12.06;100.00
61697;BME280;47610;52.252;20.922;2023-10-13T08:15:01;100379.90;;;12.10;100.00
61697;BME280;47610;52.252;20.922;2023-10-13T08:20:09;100367.16;;;12.16;100.00
61697;BME280;47610;52.252;20.922;2023-10-13T08:25:13;100357.27;;;12.27;100.00
61697;BME280;47610;52.252;20.922;2023-10-13T08:30:18;100354.17;;;12.27;100.00
61697;BME280;47610;52.252;20.922;2023-10-13T08:35:21;100360.75;;;12.26;100.00
61697;BME280;47610;52.252;20.922;2023-10-13T08:40:26;100354.39;;;12.26;100.00
61697;BME280;47610;52.252;20.922;2023-10-13T08:45:31;100359.45;;;12.22;100.00
61697;BME280;47610;52.252;20.922;2023-10-13T08:50:36;100360.11;;;12.14;100.00
61697;BME280;47610;52.252;20.922;2023-10-13T08:55:39;100362.70;;;12.16;100.00
61697;BME280;47610;52.252;20.922;2023-10-13T09:00:47;100356.32;;;12.27;100.00
61697;BME280;47610;52.252;20.922;2023-10-13T09:05:50;100350.20;;;12.41;100.00
61697;BME280;47610;52.252;20.922;2023-10-13T09:10:59;100351.20;;;12.60;100.00
61697;BME280;47610;52.252;20.922;2023-10-13T09:16:11;100349.09;;;12.84;100.00
61697;BME280;47610;52.252;20.922;2023-10-13T09:21:16;100351.45;;;12.97;100.00
61697;BME280;47610;52.252;20.922;2023-10-13T09:26:19;100347.75;;;13.11;100.00
61697;BME280;47610;52.252;20.922;2023-10-13T09:31:24;100346.24;;;13.23;100.00
61697;BME280;47610;52.252;20.922;2023-10-13T09:36:28;100342.45;;;13.27;100.00
61697;BME280;47610;52.252;20.922;2023-10-13T09:41:33;100339.34;;;13.48;100.00
61697;BME280;47610;52.252;20.922;2023-10-13T09:46:41;100340.70;;;13.57;100.00
61697;BME280;47610;52.252;20.922;2023-10-13T09:51:44;100329.95;;;13.67;100.00
61697;BME280;47610;52.252;20.922;2023-10-13T09:56:51;100318.98;;;13.91;100.00
61697;BME280;47610;52.252;20.922;2023-10-13T10:01:56;100317.46;;;14.14;100.00
61697;BME280;47610;52.252;20.922;2023-10-13T10:07:00;100307.37;;;14.25;100.00
61697;BME280;47610;52.252;20.922;2023-10-13T10:12:22;100302.43;;;14.37;100.00
61697;BME280;47610;52.252;20.922;2023-10-13T10:17:37;100303.00;;;14.56;100.00
61697;BME280;47610;52.252;20.922;2023-10-13T10:22:42;100296.67;;;14.60;100.00
61697;BME280;47610;52.252;20.922;2023-10-13T10:27:56;100280.17;;;14.57;100.00
61697;BME280;47610;52.252;20.922;2023-10-13T10:33:02;100267.53;;;14.60;100.00
61697;BME280;47610;52.252;20.922;2023-10-13T10:38:14;100270.84;;;14.76;100.00
61697;BME280;47610;52.252;20.922;2023-10-13T10:43:17;100265.20;;;14.81;100.00
61697;BME280;47610;52.252;20.922;2023-10-13T10:48:20;100260.73;;;14.80;100.00
61697;BME280;47610;52.252;20.922;2023-10-13T10:53:25;100247.84;;;14.87;100.00
61697;BME280;47610;52.252;20.922;2023-10-13T10:58:34;100236.77;;;15.00;100.00
61697;BME280;47610;52.252;20.922;2023-10-13T11:03:38;100231.76;;;15.07;100.00
61697;BME280;47610;52.252;20.922;2023-10-13T11:08:42;100226.79;;;15.18;100.00
61697;BME280;47610;52.252;20.922;2023-10-13T11:13:46;100218.27;;;15.28;100.00
61697;BME280;47610;52.252;20.922;2023-10-13T11:18:49;100215.88;;;15.51;100.00
61697;BME280;47610;52.252;20.922;2023-10-13T11:24:02;100211.23;;;15.67;100.00
61697;BME280;47610;52.252;20.922;2023-10-13T11:29:07;100200.11;;;15.87;100.00
61697;BME280;47610;52.252;20.922;2023-10-13T11:34:12;100197.18;;;16.13;100.00
61697;BME280;47610;52.252;20.922;2023-10-13T11:39:15;100181.33;;;16.30;100.00
61697;BME280;47610;52.252;20.922;2023-10-13T11:44:18;100173.08;;;16.38;100.00
61697;BME280;47610;52.252;20.922;2023-10-13T11:49:22;100173.63;;;16.44;100.00
61697;BME280;47610;52.252;20.922;2023-10-13T11:54:25;100168.11;;;16.53;100.00
61697;BME280;47610;52.252;20.922;2023-10-13T11:59:28;100169.77;;;16.73;100.00
61697;BME280;47610;52.252;20.922;2023-10-13T12:04:32;100163.73;;;16.94;100.00
61697;BME280;47610;52.252;20.922;2023-10-13T12:09:37;100162.85;;;17.20;100.00
61697;BME280;47610;52.252;20.922;2023-10-13T12:14:40;100157.98;;;17.47;100.00
61697;BME280;47610;52.252;20.922;2023-10-13T12:19:43;100150.40;;;17.51;100.00
61697;BME280;47610;52.252;20.922;2023-10-13T12:24:46;100146.95;;;17.51;100.00
61697;BME280;47610;52.252;20.922;2023-10-13T12:29:50;100133.33;;;17.50;100.00
61697;BME280;47610;52.252;20.922;2023-10-13T12:34:54;100116.17;;;17.47;100.00
61697;BME280;47610;52.252;20.922;2023-10-13T12:39:57;100111.58;;;17.50;100.00
61697;BME280;47610;52.252;20.922;2023-10-13T12:45:00;100105.17;;;17.52;100.00
61697;BME280;47610;52.252;20.922;2023-10-13T12:50:04;100103.52;;;17.50;100.00
61697;BME280;47610;52.252;20.922;2023-10-13T12:55:09;100102.17;;;17.43;100.00
61697;BME280;47610;52.252;20.922;2023-10-13T13:00:12;100088.96;;;17.32;100.00
61697;BME280;47610;52.252;20.922;2023-10-13T13:05:16;100084.81;;;17.23;100.00
61697;BME280;47610;52.252;20.922;2023-10-13T13:10:22;100097.04;;;17.25;100.00
61697;BME280;47610;52.252;20.922;2023-10-13T13:15:25;100096.88;;;17.28;100.00
61697;BME280;47610;52.252;20.922;2023-10-13T13:20:29;100094.08;;;17.31;100.00
61697;BME280;47610;52.252;20.922;2023-10-13T13:25:32;100079.84;;;17.31;100.00
61697;BME280;47610;52.252;20.922;2023-10-13T13:30:36;100083.76;;;17.31;100.00
61697;BME280;47610;52.252;20.922;2023-10-13T13:35:41;100071.48;;;17.31;100.00
61697;BME280;47610;52.252;20.922;2023-10-13T13:40:45;100062.36;;;17.29;100.00
61697;BME280;47610;52.252;20.922;2023-10-13T13:45:48;100049.39;;;17.29;100.00
61697;BME280;47610;52.252;20.922;2023-10-13T13:50:51;100036.92;;;17.33;100.00
61697;BME280;47610;52.252;20.922;2023-10-13T13:55:54;100043.33;;;17.37;100.00
61697;BME280;47610;52.252;20.922;2023-10-13T14:01:02;100040.19;;;17.38;100.00
61697;BME280;47610;52.252;20.922;2023-10-13T14:06:06;100033.27;;;17.40;100.00
61697;BME280;47610;52.252;20.922;2023-10-13T14:11:12;100016.74;;;17.42;100.00
61697;BME280;47610;52.252;20.922;2023-10-13T14:16:17;100013.17;;;17.42;100.00
61697;BME280;47610;52.252;20.922;2023-10-13T14:21:22;100004.14;;;17.43;100.00
61697;BME280;47610;52.252;20.922;2023-10-13T14:26:25;100005.39;;;17.44;100.00
61697;BME280;47610;52.252;20.922;2023-10-13T14:31:29;100001.77;;;17.49;100.00
61697;BME280;47610;52.252;20.922;2023-10-13T14:36:33;100002.79;;;17.52;100.00
61697;BME280;47610;52.252;20.922;2023-10-13T14:41:36;99997.54;;;17.54;100.00
61697;BME280;47610;52.252;20.922;2023-10-13T14:46:42;100000.15;;;17.54;100.00
61697;BME280;47610;52.252;20.922;2023-10-13T14:51:45;99994.80;;;17.56;100.00
61697;BME280;47610;52.252;20.922;2023-10-13T14:56:48;99984.14;;;17.60;100.00
61697;BME280;47610;52.252;20.922;2023-10-13T15:01:51;99985.55;;;17.60;100.00
61697;BME280;47610;52.252;20.922;2023-10-13T15:06:54;99979.06;;;17.55;100.00
61697;BME280;47610;52.252;20.922;2023-10-13T15:11:57;99975.05;;;17.56;100.00
61697;BME280;47610;52.252;20.922;2023-10-13T15:17:00;99964.50;;;17.53;100.00
61697;BME280;47610;52.252;20.922;2023-10-13T15:22:04;99949.55;;;17.49;100.00
61697;BME280;47610;52.252;20.922;2023-10-13T15:27:07;99938.81;;;17.47;100.00
61697;BME280;47610;52.252;20.922;2023-10-13T15:32:10;99931.40;;;17.45;100.00
61697;BME280;47610;52.252;20.922;2023-10-13T15:37:14;99929.11;;;17.42;100.00
61697;BME280;47610;52.252;20.922;2023-10-13T15:42:17;99919.91;;;17.36;100.00
61697;BME280;47610;52.252;20.922;2023-10-13T15:47:20;99914.86;;;17.33;100.00
61697;BME280;47610;52.252;20.922;2023-10-13T15:52:23;99914.27;;;17.30;100.00
61697;BME280;47610;52.252;20.922;2023-10-13T15:57:26;99907.87;;;17.32;100.00
61697;BME280;47610;52.252;20.922;2023-10-13T16:02:29;99899.60;;;17.30;100.00
61697;BME280;47610;52.252;20.922;2023-10-13T16:07:32;99902.26;;;17.28;100.00
61697;BME280;47610;52.252;20.922;2023-10-13T16:12:35;99896.63;;;17.27;100.00
61697;BME280;47610;52.252;20.922;2023-10-13T16:17:38;99886.73;;;17.30;100.00
61697;BME280;47610;52.252;20.922;2023-10-13T16:22:41;99884.48;;;17.31;100.00
61697;BME280;47610;52.252;20.922;2023-10-13T16:27:45;99886.81;;;17.30;100.00
61697;BME280;47610;52.252;20.922;2023-10-13T16:32:48;99879.53;;;17.32;100.00
61697;BME280;47610;52.252;20.922;2023-10-13T16:37:52;99871.29;;;17.31;100.00
61697;BME280;47610;52.252;20.922;2023-10-13T16:42:55;99861.11;;;17.29;100.00
61697;BME280;47610;52.252;20.922;2023-10-13T16:47:58;99839.52;;;17.20;100.00
61697;BME280;47610;52.252;20.922;2023-10-13T17:15:14;99810.69;;;17.36;100.00
61697;BME280;47610;52.252;20.922;2023-10-13T17:20:17;99809.98;;;17.34;100.00
61697;BME280;47610;52.252;20.922;2023-10-13T17:25:20;99805.41;;;17.25;100.00
61697;BME280;47610;52.252;20.922;2023-10-13T17:30:24;99798.97;;;17.17;100.00
61697;BME280;47610;52.252;20.922;2023-10-13T17:35:27;99796.13;;;17.10;100.00
61697;BME280;47610;52.252;20.922;2023-10-13T17:40:30;99786.48;;;17.04;100.00
61697;BME280;47610;52.252;20.922;2023-10-13T17:45:33;99777.75;;;16.98;100.00
61697;BME280;47610;52.252;20.922;2023-10-13T17:50:38;99766.29;;;16.92;100.00
61697;BME280;47610;52.252;20.922;2023-10-13T17:55:39;99766.13;;;16.86;100.00
61697;BME280;47610;52.252;20.922;2023-10-13T18:00:42;99760.85;;;16.80;100.00
61697;BME280;47610;52.252;20.922;2023-10-13T18:05:46;99762.30;;;16.77;100.00
61697;BME280;47610;52.252;20.922;2023-10-13T18:10:53;99759.51;;;16.78;100.00
61697;BME280;47610;52.252;20.922;2023-10-13T18:15:57;99757.90;;;16.78;100.00
61697;BME280;47610;52.252;20.922;2023-10-13T18:21:03;99752.17;;;16.79;100.00
61697;BME280;47610;52.252;20.922;2023-10-13T18:26:06;99751.29;;;16.83;100.00
61697;BME280;47610;52.252;20.922;2023-10-13T18:31:09;99747.42;;;16.85;100.00
61697;BME280;47610;52.252;20.922;2023-10-13T18:36:14;99759.74;;;16.84;100.00
61697;BME280;47610;52.252;20.922;2023-10-13T18:41:18;99770.48;;;16.85;100.00
61697;BME280;47610;52.252;20.922;2023-10-13T18:46:21;99766.11;;;16.86;100.00
61697;BME280;47610;52.252;20.922;2023-10-13T18:51:25;99755.44;;;16.85;100.00
61697;BME280;47610;52.252;20.922;2023-10-13T18:56:28;99742.69;;;16.82;100.00
61697;BME280;47610;52.252;20.922;2023-10-13T19:01:31;99740.83;;;16.83;100.00
61697;BME280;47610;52.252;20.922;2023-10-13T19:06:35;99732.02;;;16.83;100.00
61697;BME280;47610;52.252;20.922;2023-10-13T19:11:39;99726.64;;;16.82;100.00
61697;BME280;47610;52.252;20.922;2023-10-13T19:16:42;99720.23;;;16.79;100.00
61697;BME280;47610;52.252;20.922;2023-10-13T19:21:45;99715.46;;;16.73;100.00
61697;BME280;47610;52.252;20.922;2023-10-13T19:26:49;99720.64;;;16.68;100.00
61697;BME280;47610;52.252;20.922;2023-10-13T19:31:52;99725.61;;;16.67;100.00
61697;BME280;47610;52.252;20.922;2023-10-13T19:36:55;99717.77;;;16.66;100.00
61697;BME280;47610;52.252;20.922;2023-10-13T19:41:58;99717.45;;;16.66;100.00
61697;BME280;47610;52.252;20.922;2023-10-13T19:47:01;99705.27;;;16.65;100.00
61697;BME280;47610;52.252;20.922;2023-10-13T19:52:04;99697.36;;;16.66;100.00
61697;BME280;47610;52.252;20.922;2023-10-13T19:57:07;99692.20;;;16.72;100.00
61697;BME280;47610;52.252;20.922;2023-10-13T20:02:10;99696.39;;;16.77;100.00
61697;BME280;47610;52.252;20.922;2023-10-13T20:07:14;99689.50;;;16.77;100.00
61697;BME280;47610;52.252;20.922;2023-10-13T20:12:17;99701.58;;;16.76;100.00
61697;BME280;47610;52.252;20.922;2023-10-13T20:17:21;99701.45;;;16.75;100.00
61697;BME280;47610;52.252;20.922;2023-10-13T20:22:24;99705.77;;;16.75;100.00
61697;BME280;47610;52.252;20.922;2023-10-13T20:27:27;99701.91;;;16.74;100.00
61697;BME280;47610;52.252;20.922;2023-10-13T20:32:30;99699.76;;;16.74;100.00
61697;BME280;47610;52.252;20.922;2023-10-13T20:37:33;99695.08;;;16.76;100.00
61697;BME280;47610;52.252;20.922;2023-10-13T20:42:36;99695.28;;;16.75;100.00
61697;BME280;47610;52.252;20.922;2023-10-13T20:47:39;99684.67;;;16.76;100.00
61697;BME280;47610;52.252;20.922;2023-10-13T20:52:43;99676.45;;;16.75;100.00
61697;BME280;47610;52.252;20.922;2023-10-13T20:57:46;99659.10;;;16.72;100.00
61697;BME280;47610;52.252;20.922;2023-10-13T21:02:50;99661.27;;;16.75;100.00
61697;BME280;47610;52.252;20.922;2023-10-13T21:07:54;99657.66;;;16.71;100.00
61697;BME280;47610;52.252;20.922;2023-10-13T21:12:57;99634.52;;;16.66;100.00
61697;BME280;47610;52.252;20.922;2023-10-13T21:18:00;99631.19;;;16.63;100.00
61697;BME280;47610;52.252;20.922;2023-10-13T21:23:04;99624.13;;;16.61;100.00
61697;BME280;47610;52.252;20.922;2023-10-13T21:28:08;99629.14;;;16.69;100.00
61697;BME280;47610;52.252;20.922;2023-10-13T21:33:11;99619.31;;;16.70;100.00
61697;BME280;47610;52.252;20.922;2023-10-13T21:38:14;99614.39;;;16.69;100.00
61697;BME280;47610;52.252;20.922;2023-10-13T21:43:17;99606.09;;;16.68;100.00
61697;BME280;47610;52.252;20.922;2023-10-13T21:48:20;99612.57;;;16.68;100.00
61697;BME280;47610;52.252;20.922;2023-10-13T21:53:23;99602.84;;;16.65;100.00
61697;BME280;47610;52.252;20.922;2023-10-13T21:58:26;99603.26;;;16.67;100.00
61697;BME280;47610;52.252;20.922;2023-10-13T22:03:30;99597.14;;;16.71;100.00
61697;BME280;47610;52.252;20.922;2023-10-13T22:08:33;99594.11;;;16.79;100.00
61697;BME280;47610;52.252;20.922;2023-10-13T22:13:36;99586.26;;;16.83;100.00
61697;BME280;47610;52.252;20.922;2023-10-13T22:18:40;99583.50;;;16.83;100.00
61697;BME280;47610;52.252;20.922;2023-10-13T22:23:42;99579.84;;;16.83;100.00
61697;BME280;47610;52.252;20.922;2023-10-13T22:28:47;99578.68;;;16.78;100.00
61697;BME280;47610;52.252;20.922;2023-10-13T22:33:51;99572.53;;;16.76;100.00
61697;BME280;47610;52.252;20.922;2023-10-13T22:38:57;99564.04;;;16.69;100.00
61697;BME280;47610;52.252;20.922;2023-10-13T22:44:00;99555.43;;;16.66;100.00
61697;BME280;47610;52.252;20.922;2023-10-13T22:49:03;99544.84;;;16.60;100.00
61697;BME280;47610;52.252;20.922;2023-10-13T22:54:07;99543.77;;;16.60;100.00
61697;BME280;47610;52.252;20.922;2023-10-13T22:59:10;99531.56;;;16.61;100.00
61697;BME280;47610;52.252;20.922;2023-10-13T23:04:13;99527.28;;;16.61;100.00
61697;BME280;47610;52.252;20.922;2023-10-13T23:09:16;99520.72;;;16.60;100.00
61697;BME280;47610;52.252;20.922;2023-10-13T23:14:19;99510.94;;;16.60;100.00
61697;BME280;47610;52.252;20.922;2023-10-13T23:19:24;99509.55;;;16.60;100.00
61697;BME280;47610;52.252;20.922;2023-10-13T23:24:27;99506.67;;;16.60;100.00
61697;BME280;47610;52.252;20.922;2023-10-13T23:29:30;99493.61;;;16.57;100.00
61697;BME280;47610;52.252;20.922;2023-10-13T23:34:33;99479.01;;;16.51;100.00
61697;BME280;47610;52.252;20.922;2023-10-13T23:39:36;99477.33;;;16.50;100.00
61697;BME280;47610;52.252;20.922;2023-10-13T23:44:39;99473.33;;;16.50;100.00
61697;BME280;47610;52.252;20.922;2023-10-13T23:49:42;99470.79;;;16.49;100.00
61697;BME280;47610;52.252;20.922;2023-10-13T23:54:45;99465.45;;;16.51;100.00
61697;BME280;47610;52.252;20.922;2023-10-13T23:59:48;99466.03;;;16.53;100.00
